createdAt,value
2019-04-06T00:01:32.273Z,100338.59
2019-04-06T00:04:02.605Z,100337.38
2019-04-06T00:06:32.691Z,100333.53
2019-04-06T00:09:03.898Z,100332.75
2019-04-06T00:11:33.854Z,100336.19
2019-04-06T00:14:04.187Z,100336.08
2019-04-06T00:16:35.101Z,100330.50
2019-04-06T00:19:05.133Z,100330.94
2019-04-06T00:21:35.147Z,100332.13
2019-04-06T00:24:05.547Z,100340.00
2019-04-06T00:26:35.947Z,100333.19
2019-04-06T00:29:06.047Z,100340.89
2019-04-06T00:32:01.177Z,100339.19
2019-04-06T00:34:31.534Z,100344.77
2019-04-06T00:37:01.558Z,100341.37
2019-04-06T00:39:31.811Z,100340.95
2019-04-06T00:42:01.863Z,100346.55
2019-04-06T00:44:31.796Z,100346.92
2019-04-06T00:47:01.816Z,100351.66
2019-04-06T00:49:31.828Z,100353.05
2019-04-06T00:52:01.727Z,100352.58
2019-04-06T00:54:31.792Z,100355.13
2019-04-06T00:57:02.170Z,100350.08
2019-04-06T00:59:32.206Z,100354.41
2019-04-06T01:02:02.133Z,100360.44
2019-04-06T01:04:32.321Z,100357.34
2019-04-06T01:07:02.533Z,100353.91
2019-04-06T01:09:32.949Z,100359.87
2019-04-06T01:12:02.946Z,100362.97
2019-04-06T01:14:33.158Z,100363.75
2019-04-06T01:17:04.110Z,100360.85
2019-04-06T01:19:34.096Z,100372.56
2019-04-06T01:22:04.071Z,100367.64
2019-04-06T01:24:34.077Z,100370.23
2019-04-06T01:27:04.205Z,100362.55
2019-04-06T01:29:34.195Z,100374.14
2019-04-06T01:32:04.269Z,100366.81
2019-04-06T01:34:34.453Z,100375.41
2019-04-06T01:37:04.777Z,100369.81
2019-04-06T01:39:34.695Z,100374.08
2019-04-06T01:42:04.642Z,100366.37
2019-04-06T01:44:34.533Z,100375.47
2019-04-06T01:47:04.496Z,100377.20
2019-04-06T01:49:34.400Z,100377.27
2019-04-06T01:52:04.317Z,100369.84
2019-04-06T01:54:34.433Z,100373.00
2019-04-06T01:57:04.424Z,100375.18
2019-04-06T01:59:34.428Z,100376.45
2019-04-06T02:02:12.396Z,100376.09
2019-04-06T02:04:42.491Z,100377.44
2019-04-06T02:07:12.628Z,100375.70
2019-04-06T02:09:42.779Z,100373.22
2019-04-06T02:12:13.024Z,100372.78
2019-04-06T02:14:42.934Z,100377.95
2019-04-06T02:17:12.832Z,100374.93
2019-04-06T02:19:42.929Z,100378.27
2019-04-06T02:22:13.144Z,100372.23
2019-04-06T02:24:43.247Z,100372.20
2019-04-06T02:27:13.161Z,100376.94
2019-04-06T02:29:43.594Z,100378.65
2019-04-06T02:32:26.500Z,100382.50
2019-04-06T02:35:05.332Z,100378.19
2019-04-06T02:37:56.267Z,100383.33
2019-04-06T02:40:46.056Z,100386.74
2019-04-06T02:43:19.535Z,100390.19
2019-04-06T02:45:49.517Z,100394.92
2019-04-06T02:48:19.478Z,100395.91
2019-04-06T02:50:49.633Z,100393.06
2019-04-06T02:53:19.513Z,100394.06
2019-04-06T02:55:49.596Z,100394.29
2019-04-06T02:58:22.825Z,100397.59
2019-04-06T03:00:51.720Z,100388.59
2019-04-06T03:03:23.423Z,100382.09
2019-04-06T03:05:53.753Z,100398.41
2019-04-06T03:08:23.710Z,100383.37
2019-04-06T03:10:53.815Z,100390.27
2019-04-06T03:13:24.103Z,100388.70
2019-04-06T03:15:54.543Z,100395.81
2019-04-06T03:18:25.153Z,100389.70
2019-04-06T03:20:55.192Z,100381.27
2019-04-06T03:23:25.794Z,100387.34
2019-04-06T03:25:56.144Z,100393.73
2019-04-06T03:28:26.229Z,100389.92
2019-04-06T03:30:56.182Z,100385.12
2019-04-06T03:33:26.176Z,100383.08
2019-04-06T03:35:56.074Z,100387.27
2019-04-06T03:38:26.025Z,100385.94
2019-04-06T03:40:55.945Z,100390.23
2019-04-06T03:43:25.874Z,100384.64
2019-04-06T03:45:55.868Z,100385.19
2019-04-06T03:48:25.843Z,100385.56
2019-04-06T03:50:55.747Z,100388.98
2019-04-06T03:53:25.725Z,100384.50
2019-04-06T03:55:55.849Z,100387.44
2019-04-06T03:58:26.077Z,100389.23
2019-04-06T04:00:56.053Z,100392.83
2019-04-06T04:03:25.964Z,100385.73
2019-04-06T04:05:56.173Z,100383.11
2019-04-06T04:08:26.115Z,100386.41
2019-04-06T04:10:56.695Z,100381.75
2019-04-06T04:13:26.640Z,100378.72
2019-04-06T04:15:57.653Z,100388.36
2019-04-06T04:18:28.136Z,100386.55
2019-04-06T04:20:58.036Z,100380.45
2019-04-06T04:23:27.965Z,100380.62
2019-04-06T04:25:57.871Z,100385.67
2019-04-06T04:28:27.785Z,100378.75
2019-04-06T04:30:57.708Z,100379.56
2019-04-06T04:33:27.619Z,100378.31
2019-04-06T04:35:57.535Z,100377.93
2019-04-06T04:38:27.416Z,100376.36
2019-04-06T04:40:57.711Z,100375.72
2019-04-06T04:43:27.673Z,100369.16
2019-04-06T04:45:57.636Z,100373.13
2019-04-06T04:48:27.846Z,100383.23
2019-04-06T04:50:57.773Z,100390.13
2019-04-06T04:53:27.685Z,100386.05
2019-04-06T04:55:57.835Z,100388.73
2019-04-06T04:58:28.119Z,100397.51
2019-04-06T05:00:58.048Z,100396.63
2019-04-06T05:03:27.967Z,100396.36
2019-04-06T05:05:58.140Z,100399.77
2019-04-06T05:08:28.415Z,100395.39
2019-04-06T05:10:58.441Z,100405.25
2019-04-06T05:13:28.375Z,100406.48
2019-04-06T05:16:23.598Z,100402.80
2019-04-06T05:18:53.518Z,100399.07
2019-04-06T05:21:23.723Z,100402.16
2019-04-06T05:23:53.974Z,100402.13
2019-04-06T05:26:24.446Z,100410.03
2019-04-06T05:28:54.688Z,100403.32
2019-04-06T05:31:24.812Z,100413.73
2019-04-06T05:33:55.021Z,100415.02
2019-04-06T05:36:24.998Z,100416.95
2019-04-06T05:38:55.100Z,100418.36
2019-04-06T05:41:25.041Z,100414.72
2019-04-06T05:43:54.937Z,100428.75
2019-04-06T05:46:25.511Z,100423.44
2019-04-06T05:48:55.676Z,100420.42
2019-04-06T05:51:25.665Z,100419.56
2019-04-06T05:53:55.557Z,100429.09
2019-04-06T05:56:25.698Z,100423.05
2019-04-06T05:58:55.617Z,100425.31
2019-04-06T06:01:25.633Z,100427.02
2019-04-06T06:03:55.730Z,100432.80
2019-04-06T06:06:25.694Z,100435.05
2019-04-06T06:08:56.297Z,100426.58
2019-04-06T06:11:26.287Z,100432.17
2019-04-06T06:13:56.265Z,100431.16
2019-04-06T06:16:26.343Z,100435.77
2019-04-06T06:18:56.400Z,100440.31
2019-04-06T06:21:26.501Z,100442.88
2019-04-06T06:23:56.810Z,100444.47
2019-04-06T06:26:26.837Z,100446.70
2019-04-06T06:28:56.771Z,100441.88
2019-04-06T06:31:26.690Z,100449.97
2019-04-06T06:33:56.605Z,100446.37
2019-04-06T06:36:26.581Z,100452.91
2019-04-06T06:38:56.536Z,100448.25
2019-04-06T06:41:26.833Z,100452.52
2019-04-06T06:43:57.049Z,100460.50
2019-04-06T06:46:26.966Z,100459.19
2019-04-06T06:48:57.173Z,100450.86
2019-04-06T06:51:27.395Z,100450.80
2019-04-06T06:53:57.278Z,100450.31
2019-04-06T06:56:27.596Z,100451.59
2019-04-06T06:58:57.916Z,100464.58
2019-04-06T07:01:28.077Z,100460.28
2019-04-06T07:03:57.967Z,100467.98
2019-04-06T07:06:27.988Z,100467.44
2019-04-06T07:08:57.945Z,100454.22
2019-04-06T07:11:28.336Z,100454.36
2019-04-06T07:13:58.528Z,100451.70
2019-04-06T07:16:28.464Z,100454.91
2019-04-06T07:18:58.443Z,100455.88
2019-04-06T07:21:28.355Z,100451.11
2019-04-06T07:23:58.328Z,100450.81
2019-04-06T07:26:28.695Z,100458.61
2019-04-06T07:28:58.630Z,100465.45
2019-04-06T07:31:28.637Z,100453.52
2019-04-06T07:33:58.940Z,100459.83
2019-04-06T07:36:28.848Z,100461.30
2019-04-06T07:38:58.822Z,100461.41
2019-04-06T07:41:28.743Z,100456.10
2019-04-06T07:43:58.666Z,100464.89
2019-04-06T07:46:29.087Z,100462.34
2019-04-06T07:49:07.942Z,100466.17
2019-04-06T07:51:31.223Z,100467.80
2019-04-06T07:54:01.467Z,100460.46
2019-04-06T07:56:31.458Z,100464.75
2019-04-06T07:59:01.496Z,100459.75
2019-04-06T08:01:31.565Z,100464.73
2019-04-06T08:04:01.640Z,100465.22
2019-04-06T08:06:31.827Z,100460.94
2019-04-06T08:09:01.843Z,100464.42
2019-04-06T08:11:32.151Z,100455.50
2019-04-06T08:14:02.197Z,100452.65
2019-04-06T08:16:32.166Z,100455.56
2019-04-06T08:19:02.460Z,100446.14
2019-04-06T08:21:33.218Z,100443.48
2019-04-06T08:24:03.667Z,100449.46
2019-04-06T08:26:33.859Z,100448.71
2019-04-06T08:29:04.067Z,100449.23
2019-04-06T08:31:34.049Z,100453.46
2019-04-06T08:34:04.108Z,100452.28
2019-04-06T08:36:34.012Z,100452.34
2019-04-06T08:39:06.017Z,100442.93
2019-04-06T08:41:36.059Z,100450.13
2019-04-06T08:44:06.424Z,100454.02
2019-04-06T08:46:36.438Z,100445.84
2019-04-06T08:49:06.887Z,100448.38
2019-04-06T08:51:36.789Z,100447.31
2019-04-06T08:54:07.190Z,100444.28
2019-04-06T08:56:37.700Z,100441.14
2019-04-06T08:59:12.018Z,100436.39
2019-04-06T09:01:39.763Z,100428.66
2019-04-06T09:04:09.783Z,100433.02
2019-04-06T09:06:39.812Z,100432.02
2019-04-06T09:09:09.949Z,100426.61
2019-04-06T09:11:40.234Z,100437.02
2019-04-06T09:14:10.242Z,100433.56
2019-04-06T09:16:40.594Z,100434.33
2019-04-06T09:19:10.469Z,100435.59
2019-04-06T09:21:41.148Z,100437.89
2019-04-06T09:24:11.224Z,100432.97
2019-04-06T09:26:41.181Z,100426.81
2019-04-06T09:29:21.886Z,100412.16
2019-04-06T09:31:43.040Z,100410.20
2019-04-06T09:34:12.963Z,100419.94
2019-04-06T09:36:42.960Z,100419.62
2019-04-06T09:39:12.887Z,100413.11
2019-04-06T09:41:42.829Z,100417.73
2019-04-06T09:44:21.024Z,100408.98
2019-04-06T09:47:03.022Z,100401.18
2019-04-06T09:49:54.722Z,100400.94
2019-04-06T09:52:34.101Z,100400.11
2019-04-06T09:55:22.107Z,100395.25
2019-04-06T09:58:14.476Z,100400.49
2019-04-06T10:00:55.245Z,100400.94
2019-04-06T10:03:38.357Z,100396.59
2019-04-06T10:06:27.959Z,100407.31
2019-04-06T10:09:33.364Z,100393.48
2019-04-06T10:12:18.887Z,100393.61
2019-04-06T10:15:04.563Z,100391.67
2019-04-06T10:17:43.165Z,100394.55
2019-04-06T10:20:26.097Z,100377.20
2019-04-06T10:23:14.072Z,100377.22
2019-04-06T10:25:59.840Z,100376.97
2019-04-06T10:28:44.273Z,100374.00
2019-04-06T10:31:37.062Z,100375.22
2019-04-06T10:34:25.078Z,100370.60
2019-04-06T10:37:13.578Z,100373.72
2019-04-06T10:40:05.665Z,100371.31
2019-04-06T10:42:53.512Z,100371.09
2019-04-06T10:45:33.938Z,100370.93
2019-04-06T10:48:13.624Z,100375.46
2019-04-06T10:51:01.242Z,100367.89
2019-04-06T10:53:40.041Z,100367.05
2019-04-06T10:56:32.155Z,100377.19
2019-04-06T10:59:29.120Z,100380.18
2019-04-06T11:02:24.452Z,100375.66
2019-04-06T11:05:16.159Z,100372.09
2019-04-06T11:08:08.460Z,100374.73
2019-04-06T11:10:53.859Z,100378.27
2019-04-06T11:13:35.891Z,100370.24
2019-04-06T11:16:25.670Z,100373.08
2019-04-06T11:19:12.244Z,100364.60
2019-04-06T11:21:50.235Z,100366.98
2019-04-06T11:24:39.152Z,100369.38
2019-04-06T11:27:27.773Z,100368.78
2019-04-06T11:30:13.249Z,100362.52
2019-04-06T11:32:56.504Z,100362.75
2019-04-06T11:35:44.541Z,100357.52
2019-04-06T11:38:42.522Z,100359.25
2019-04-06T11:41:21.386Z,100356.66
2019-04-06T11:43:59.375Z,100361.12
2019-04-06T11:46:40.419Z,100352.91
2019-04-06T11:49:35.234Z,100368.97
2019-04-06T11:52:17.342Z,100353.14
2019-04-06T11:55:05.609Z,100350.53
2019-04-06T11:57:54.480Z,100340.53
2019-04-06T12:00:31.733Z,100339.83
2019-04-06T12:03:22.430Z,100338.41
2019-04-06T12:06:20.654Z,100341.34
2019-04-06T12:08:59.743Z,100334.84
2019-04-06T12:11:52.002Z,100331.49
2019-04-06T12:14:27.333Z,100334.75
2019-04-06T12:17:11.630Z,100329.22
2019-04-06T12:20:08.010Z,100332.56
2019-04-06T12:22:53.672Z,100328.56
2019-04-06T12:25:51.581Z,100326.11
2019-04-06T12:28:28.961Z,100323.80
2019-04-06T12:31:18.070Z,100325.44
2019-04-06T12:34:00.600Z,100318.64
2019-04-06T12:36:36.910Z,100317.48
2019-04-06T12:39:17.982Z,100317.09
2019-04-06T12:42:10.483Z,100326.61
2019-04-06T12:45:04.095Z,100310.98
2019-04-06T12:47:42.424Z,100316.67
2019-04-06T12:50:23.036Z,100307.56
2019-04-06T12:53:11.003Z,100317.68
2019-04-06T12:56:06.008Z,100310.27
2019-04-06T12:58:51.709Z,100309.84
2019-04-06T13:01:41.474Z,100308.95
2019-04-06T13:04:25.477Z,100300.77
2019-04-06T13:07:14.013Z,100301.34
2019-04-06T13:10:06.070Z,100302.60
2019-04-06T13:12:48.377Z,100301.80
2019-04-06T13:15:34.218Z,100290.45
2019-04-06T13:18:32.463Z,100296.53
2019-04-06T13:21:27.580Z,100296.87
2019-04-06T13:24:08.539Z,100288.17
2019-04-06T13:26:56.312Z,100284.95
2019-04-06T13:29:39.976Z,100282.21
2019-04-06T13:32:21.389Z,100286.33
2019-04-06T13:35:14.905Z,100273.77
2019-04-06T13:37:56.268Z,100273.56
2019-04-06T13:40:50.292Z,100274.38
2019-04-06T13:43:44.987Z,100283.58
2019-04-06T13:46:24.220Z,100274.45
2019-04-06T13:49:06.132Z,100279.23
2019-04-06T13:51:44.395Z,100286.14
2019-04-06T13:54:33.791Z,100264.51
2019-04-06T13:57:10.596Z,100272.91
2019-04-06T13:59:59.199Z,100259.31
2019-04-06T14:02:44.034Z,100268.53
2019-04-06T14:05:22.059Z,100263.61
2019-04-06T14:08:03.347Z,100264.88
2019-04-06T14:10:42.690Z,100264.95
2019-04-06T14:13:37.086Z,100267.91
2019-04-06T14:16:24.706Z,100268.78
2019-04-06T14:19:17.696Z,100278.80
2019-04-06T14:22:12.561Z,100276.56
2019-04-06T14:25:07.400Z,100274.53
2019-04-06T14:28:14.406Z,100266.83
2019-04-06T14:31:27.922Z,100260.87
2019-04-06T14:34:11.906Z,100275.11
2019-04-06T14:36:50.634Z,100264.80
2019-04-06T14:39:39.756Z,100266.61
2019-04-06T14:42:30.731Z,100277.92
2019-04-06T14:45:18.298Z,100269.90
2019-04-06T14:48:04.748Z,100266.89
2019-04-06T14:50:41.836Z,100266.87
2019-04-06T14:53:33.615Z,100280.08
2019-04-06T14:56:12.229Z,100264.52
2019-04-06T14:59:07.965Z,100272.76
2019-04-06T15:02:00.150Z,100274.65
2019-04-06T15:04:54.338Z,100265.63
2019-04-06T15:07:30.674Z,100274.11
2019-04-06T15:10:10.836Z,100266.22
2019-04-06T15:12:50.113Z,100271.61
2019-04-06T15:15:37.641Z,100270.16
2019-04-06T15:18:32.736Z,100263.95
2019-04-06T15:21:34.502Z,100270.27
2019-04-06T15:24:19.993Z,100277.65
2019-04-06T15:27:11.398Z,100270.33
2019-04-06T15:29:50.311Z,100272.78
2019-04-06T15:32:28.961Z,100267.58
2019-04-06T15:35:07.377Z,100272.31
2019-04-06T15:37:44.790Z,100265.85
2019-04-06T15:40:25.321Z,100258.09
2019-04-06T15:43:05.261Z,100273.05
2019-04-06T15:45:54.281Z,100265.53
2019-04-06T15:49:01.338Z,100264.89
2019-04-06T15:51:46.385Z,100265.19
2019-04-06T15:54:33.077Z,100260.09
2019-04-06T15:57:27.782Z,100266.09
2019-04-06T16:00:03.375Z,100262.70
2019-04-06T16:03:00.989Z,100261.37
2019-04-06T16:06:09.441Z,100268.23
2019-04-06T16:09:07.671Z,100252.81
2019-04-06T16:11:52.862Z,100265.05
2019-04-06T16:14:33.463Z,100259.49
2019-04-06T16:17:15.053Z,100268.48
2019-04-06T16:20:04.226Z,100265.14
2019-04-06T16:22:53.883Z,100273.73
2019-04-06T16:25:30.716Z,100270.70
2019-04-06T16:28:25.896Z,100276.12
2019-04-06T16:31:16.023Z,100275.58
2019-04-06T16:33:59.365Z,100276.46
2019-04-06T16:36:42.722Z,100286.84
2019-04-06T16:39:30.077Z,100278.52
2019-04-06T16:42:29.485Z,100286.03
2019-04-06T16:45:07.318Z,100279.80
2019-04-06T16:48:03.297Z,100279.50
2019-04-06T16:50:38.477Z,100282.04
2019-04-06T16:53:36.711Z,100282.44
2019-04-06T16:56:20.990Z,100277.30
2019-04-06T16:59:03.752Z,100282.07
2019-04-06T17:01:38.794Z,100282.52
2019-04-06T17:04:42.814Z,100287.81
2019-04-06T17:07:25.226Z,100281.63
2019-04-06T17:10:29.384Z,100283.51
2019-04-06T17:13:09.713Z,100286.74
2019-04-06T17:15:54.809Z,100283.06
2019-04-06T17:18:43.697Z,100286.12
2019-04-06T17:21:25.782Z,100290.09
2019-04-06T17:24:14.006Z,100293.03
2019-04-06T17:26:59.284Z,100290.08
2019-04-06T17:29:49.732Z,100294.97
2019-04-06T17:32:38.317Z,100293.66
2019-04-06T17:35:32.494Z,100297.62
2019-04-06T17:38:10.216Z,100298.50
2019-04-06T17:40:54.702Z,100303.41
2019-04-06T17:43:43.034Z,100307.59
2019-04-06T17:46:37.128Z,100305.94
2019-04-06T17:49:28.661Z,100311.28
2019-04-06T17:52:17.264Z,100307.40
2019-04-06T17:55:14.483Z,100313.24
2019-04-06T17:57:57.823Z,100316.92
2019-04-06T18:00:35.884Z,100327.27
2019-04-06T18:03:28.511Z,100326.38
2019-04-06T18:06:28.379Z,100331.50
2019-04-06T18:09:16.418Z,100333.70
2019-04-06T18:11:57.860Z,100333.88
2019-04-06T18:14:28.097Z,100343.23
2019-04-06T18:16:58.318Z,100343.33
2019-04-06T18:19:28.786Z,100342.50
2019-04-06T18:21:59.500Z,100349.22
2019-04-06T18:24:29.783Z,100349.01
2019-04-06T18:26:59.997Z,100354.24
2019-04-06T18:29:30.844Z,100360.66
2019-04-06T18:32:09.915Z,100352.87
2019-04-06T18:34:42.139Z,100357.89
2019-04-06T18:37:45.993Z,100355.37
2019-04-06T18:40:23.647Z,100358.28
2019-04-06T18:42:54.525Z,100359.50
2019-04-06T18:45:34.110Z,100358.84
2019-04-06T18:48:04.230Z,100358.83
2019-04-06T18:50:38.221Z,100361.05
2019-04-06T18:53:06.230Z,100367.14
2019-04-06T18:55:36.264Z,100364.05
2019-04-06T18:58:11.248Z,100367.28
2019-04-06T19:00:38.382Z,100370.75
2019-04-06T19:03:14.092Z,100365.92
2019-04-06T19:05:43.313Z,100371.22
2019-04-06T19:08:13.644Z,100367.75
2019-04-06T19:10:51.315Z,100369.44
2019-04-06T19:13:21.610Z,100367.66
2019-04-06T19:15:51.800Z,100370.27
2019-04-06T19:18:33.382Z,100368.52
2019-04-06T19:21:24.194Z,100373.83
2019-04-06T19:24:13.789Z,100370.09
2019-04-06T19:26:45.445Z,100372.13
2019-04-06T19:29:15.384Z,100378.55
2019-04-06T19:31:46.025Z,100370.09
2019-04-06T19:34:15.958Z,100370.19
2019-04-06T19:36:46.097Z,100361.98
2019-04-06T19:39:16.215Z,100368.57
2019-04-06T19:41:46.222Z,100372.09
2019-04-06T19:44:16.719Z,100373.45
2019-04-06T19:46:47.025Z,100370.35
2019-04-06T19:49:17.857Z,100373.91
2019-04-06T19:51:48.154Z,100376.84
2019-04-06T19:54:18.143Z,100381.11
2019-04-06T19:56:48.590Z,100375.24
2019-04-06T19:59:18.776Z,100379.27
2019-04-06T20:01:49.296Z,100376.37
2019-04-06T20:04:19.474Z,100380.91
2019-04-06T20:06:50.450Z,100377.61
2019-04-06T20:09:20.793Z,100378.87
2019-04-06T20:11:51.407Z,100381.59
2019-04-06T20:14:21.934Z,100377.52
2019-04-06T20:16:51.925Z,100377.13
2019-04-06T20:19:22.601Z,100379.78
2019-04-06T20:21:53.005Z,100376.66
2019-04-06T20:24:23.437Z,100372.23
2019-04-06T20:26:53.440Z,100383.22
2019-04-06T20:29:23.715Z,100372.08
2019-04-06T20:31:54.293Z,100378.48
2019-04-06T20:34:24.215Z,100382.98
2019-04-06T20:36:54.209Z,100373.84
2019-04-06T20:39:24.284Z,100378.09
2019-04-06T20:41:54.559Z,100371.73
2019-04-06T20:44:24.958Z,100369.28
2019-04-06T20:46:55.188Z,100364.36
2019-04-06T20:49:25.216Z,100370.56
2019-04-06T20:51:55.296Z,100370.95
2019-04-06T20:54:25.309Z,100367.48
2019-04-06T20:56:57.999Z,100371.09
2019-04-06T20:59:27.424Z,100373.33
2019-04-06T21:01:57.831Z,100371.25
2019-04-06T21:04:29.192Z,100373.48
2019-04-06T21:06:59.937Z,100370.27
2019-04-06T21:09:35.294Z,100371.88
2019-04-06T21:12:05.386Z,100373.66
2019-04-06T21:14:36.204Z,100372.31
2019-04-06T21:17:06.884Z,100368.57
2019-04-06T21:19:42.691Z,100375.70
2019-04-06T21:22:12.824Z,100378.01
2019-04-06T21:24:44.114Z,100374.55
2019-04-06T21:27:14.349Z,100372.78
2019-04-06T21:29:44.560Z,100370.62
2019-04-06T21:32:15.075Z,100370.67
2019-04-06T21:34:45.765Z,100370.97
2019-04-06T21:37:16.233Z,100372.44
2019-04-06T21:39:46.762Z,100366.53
2019-04-06T21:42:17.204Z,100369.62
2019-04-06T21:44:48.048Z,100363.61
2019-04-06T21:47:18.486Z,100356.55
2019-04-06T21:49:49.394Z,100359.84
2019-04-06T21:52:19.348Z,100360.98
2019-04-06T21:54:49.844Z,100362.61
2019-04-06T21:57:20.494Z,100361.52
2019-04-06T21:59:50.519Z,100360.27
2019-04-06T22:02:28.616Z,100360.31
2019-04-06T22:04:59.020Z,100359.61
2019-04-06T22:07:29.802Z,100359.63
2019-04-06T22:09:59.924Z,100360.73
2019-04-06T22:12:30.091Z,100357.09
2019-04-06T22:15:00.770Z,100360.34
2019-04-06T22:17:33.549Z,100358.33
2019-04-06T22:20:03.030Z,100359.25
2019-04-06T22:22:35.376Z,100355.31
2019-04-06T22:25:06.263Z,100361.00
2019-04-06T22:27:37.085Z,100353.11
2019-04-06T22:30:09.779Z,100352.92
2019-04-06T22:32:40.294Z,100351.19
2019-04-06T22:35:10.600Z,100348.17
2019-04-06T22:37:41.887Z,100349.52
2019-04-06T22:40:14.234Z,100345.00
2019-04-06T22:42:45.108Z,100344.56
2019-04-06T22:45:17.500Z,100346.23
2019-04-06T22:47:47.693Z,100345.14
2019-04-06T22:50:18.810Z,100349.30
2019-04-06T22:52:48.879Z,100346.49
2019-04-06T22:55:20.998Z,100347.85
2019-04-06T22:57:51.173Z,100346.70
2019-04-06T23:00:32.127Z,100344.86
2019-04-06T23:03:13.303Z,100349.25
2019-04-06T23:05:47.038Z,100345.92
2019-04-06T23:08:16.922Z,100346.56
2019-04-06T23:10:47.587Z,100350.07
2019-04-06T23:13:17.747Z,100345.74
2019-04-06T23:15:47.999Z,100344.46
2019-04-06T23:18:18.645Z,100337.12
2019-04-06T23:20:48.619Z,100338.85
2019-04-06T23:23:18.562Z,100342.34
2019-04-06T23:25:48.481Z,100353.09
2019-04-06T23:28:18.496Z,100343.83
2019-04-06T23:30:48.838Z,100346.45
2019-04-06T23:33:18.851Z,100342.52
2019-04-06T23:35:49.164Z,100347.01
2019-04-06T23:38:19.279Z,100344.97
2019-04-06T23:40:49.762Z,100350.67
2019-04-06T23:43:19.825Z,100349.19
2019-04-06T23:45:50.372Z,100355.81
2019-04-06T23:48:20.672Z,100361.00
2019-04-06T23:50:51.633Z,100360.26
2019-04-06T23:53:21.966Z,100359.25
2019-04-06T23:55:51.907Z,100358.91
2019-04-06T23:58:21.858Z,100362.16
